createdAt,value
2023-03-06T00:01:05.741Z,70.83
2023-03-06T00:03:35.138Z,70.87
2023-03-06T00:06:07.503Z,70.94
2023-03-06T00:08:36.997Z,70.92
2023-03-06T00:11:06.473Z,71.28
2023-03-06T00:13:36.029Z,70.93
2023-03-06T00:16:07.026Z,71.12
2023-03-06T00:18:37.111Z,71.38
2023-03-06T00:21:12.180Z,71.54
2023-03-06T00:23:41.636Z,71.07
2023-03-06T00:26:11.826Z,71.29
2023-03-06T00:28:43.988Z,71.34
2023-03-06T00:31:13.461Z,71.58
2023-03-06T00:33:43.586Z,71.42
2023-03-06T00:36:15.984Z,71.28
2023-03-06T00:38:45.407Z,71.33
2023-03-06T00:41:16.104Z,71.61
2023-03-06T00:43:45.526Z,71.65
2023-03-06T00:46:14.973Z,71.54
2023-03-06T00:48:44.398Z,71.39
2023-03-06T00:51:17.276Z,71.46
2023-03-06T00:53:46.736Z,71.49
2023-03-06T00:56:17.080Z,71.66
2023-03-06T00:58:47.959Z,71.70
2023-03-06T01:01:17.519Z,72.13
2023-03-06T01:03:47.199Z,71.96
2023-03-06T01:06:19.247Z,71.99
2023-03-06T01:08:48.640Z,71.92
2023-03-06T01:11:18.143Z,71.94
2023-03-06T01:13:47.601Z,72.10
2023-03-06T01:16:19.416Z,71.87
2023-03-06T01:18:53.905Z,72.02
2023-03-06T01:21:26.212Z,72.22
2023-03-06T01:23:55.634Z,72.23
2023-03-06T01:26:26.538Z,72.43
2023-03-06T01:28:57.422Z,72.39
2023-03-06T01:31:27.840Z,72.47
2023-03-06T01:33:57.264Z,72.38
2023-03-06T01:36:29.249Z,72.42
2023-03-06T01:38:58.637Z,72.36
2023-03-06T01:41:28.023Z,72.54
2023-03-06T01:43:57.775Z,72.45
2023-03-06T01:46:42.208Z,72.35
2023-03-06T01:49:21.317Z,72.50
2023-03-06T01:51:57.267Z,72.37
2023-03-06T01:54:30.878Z,72.53
2023-03-06T01:57:04.828Z,72.57
2023-03-06T01:59:37.435Z,72.47
2023-03-06T02:02:08.715Z,72.69
2023-03-06T02:04:39.647Z,72.52
2023-03-06T02:07:13.235Z,72.77
2023-03-06T02:09:43.002Z,72.78
2023-03-06T02:12:15.579Z,72.78
2023-03-06T02:14:46.007Z,72.65
2023-03-06T02:17:18.210Z,72.90
2023-03-06T02:19:56.549Z,72.96
2023-03-06T02:22:38.807Z,72.99
2023-03-06T02:25:16.845Z,73.03
2023-03-06T02:27:50.101Z,72.77
2023-03-06T02:30:20.419Z,72.84
2023-03-06T02:32:49.810Z,72.99
2023-03-06T02:35:22.701Z,72.87
2023-03-06T02:37:52.612Z,73.08
2023-03-06T02:40:24.326Z,73.39
2023-03-06T02:42:58.803Z,73.18
2023-03-06T02:45:34.951Z,73.30
2023-03-06T02:48:04.601Z,73.70
2023-03-06T02:50:35.085Z,73.66
2023-03-06T02:53:04.648Z,73.68
2023-03-06T02:55:34.102Z,73.73
2023-03-06T02:58:07.388Z,73.65
2023-03-06T03:00:37.495Z,73.87
2023-03-06T03:03:09.672Z,74.04
2023-03-06T03:05:39.080Z,74.11
2023-03-06T03:08:16.032Z,74.01
2023-03-06T03:10:45.458Z,74.37
2023-03-06T03:13:19.643Z,74.01
2023-03-06T03:16:00.286Z,74.25
2023-03-06T03:18:29.902Z,74.12
2023-03-06T03:20:59.598Z,74.28
2023-03-06T03:23:29.635Z,74.26
2023-03-06T03:26:08.860Z,74.57
2023-03-06T03:28:42.765Z,74.12
2023-03-06T03:31:15.360Z,74.33
2023-03-06T03:33:45.297Z,74.40
2023-03-06T03:36:15.762Z,74.22
2023-03-06T03:38:48.279Z,74.19
2023-03-06T03:41:17.754Z,73.97
2023-03-06T03:43:49.872Z,73.91
2023-03-06T03:46:21.528Z,73.61
2023-03-06T03:48:51.818Z,73.86
2023-03-06T03:51:21.438Z,73.95
2023-03-06T03:53:56.802Z,74.15
2023-03-06T03:56:27.965Z,74.11
2023-03-06T03:59:08.012Z,74.07
2023-03-06T04:01:44.693Z,74.19
2023-03-06T04:04:14.291Z,74.03
2023-03-06T04:06:45.552Z,74.03
2023-03-06T04:09:15.485Z,74.27
2023-03-06T04:11:44.930Z,74.17
2023-03-06T04:14:16.937Z,74.07
2023-03-06T04:16:46.470Z,74.05
2023-03-06T04:19:16.212Z,74.12
2023-03-06T04:21:45.675Z,74.23
2023-03-06T04:24:15.853Z,74.32
2023-03-06T04:26:45.329Z,74.23
2023-03-06T04:29:17.342Z,74.09
2023-03-06T04:31:47.009Z,74.26
2023-03-06T04:34:16.584Z,74.55
2023-03-06T04:36:47.786Z,74.72
2023-03-06T04:39:19.158Z,74.52
2023-03-06T04:41:48.530Z,74.41
2023-03-06T04:44:20.654Z,74.37
2023-03-06T04:46:50.035Z,74.24
2023-03-06T04:49:19.541Z,74.45
2023-03-06T04:51:48.931Z,74.54
2023-03-06T04:54:19.124Z,74.70
2023-03-06T04:56:48.631Z,74.65
2023-03-06T04:59:20.587Z,74.89
2023-03-06T05:01:50.411Z,75.01
2023-03-06T05:04:20.302Z,74.97
2023-03-06T05:06:49.689Z,74.72
2023-03-06T05:09:19.553Z,74.68
2023-03-06T05:11:48.893Z,75.35
2023-03-06T05:14:20.944Z,75.71
2023-03-06T05:16:50.399Z,75.66
2023-03-06T05:19:20.059Z,75.95
2023-03-06T05:21:49.486Z,76.38
2023-03-06T05:24:18.938Z,76.26
2023-03-06T05:26:48.356Z,76.38
2023-03-06T05:29:17.795Z,76.51
2023-03-06T05:31:50.096Z,76.30
2023-03-06T05:34:19.770Z,76.33
2023-03-06T05:36:49.609Z,76.64
2023-03-06T05:39:19.012Z,76.93
2023-03-06T05:41:48.372Z,76.97
2023-03-06T05:44:17.879Z,76.98
2023-03-06T05:46:51.482Z,77.16
2023-03-06T05:49:20.898Z,76.44
2023-03-06T05:51:50.298Z,77.14
2023-03-06T05:54:19.781Z,76.84
2023-03-06T05:56:49.317Z,77.46
2023-03-06T05:59:18.769Z,77.31
2023-03-06T06:01:50.805Z,77.42
2023-03-06T06:04:20.208Z,77.07
2023-03-06T06:06:53.257Z,77.39
2023-03-06T06:09:22.696Z,77.76
2023-03-06T06:11:54.002Z,77.75
2023-03-06T06:14:23.621Z,77.71
2023-03-06T06:16:56.026Z,77.70
2023-03-06T06:19:26.372Z,78.40
2023-03-06T06:21:56.584Z,78.07
2023-03-06T06:24:27.780Z,78.25
2023-03-06T06:26:59.253Z,77.75
2023-03-06T06:29:30.726Z,78.16
2023-03-06T06:32:03.306Z,78.22
2023-03-06T06:34:32.785Z,78.17
2023-03-06T06:37:02.299Z,78.80
2023-03-06T06:39:31.706Z,78.14
2023-03-06T06:42:25.898Z,78.05
2023-03-06T06:44:52.388Z,77.74
2023-03-06T06:47:25.653Z,78.16
2023-03-06T06:49:57.107Z,77.83
2023-03-06T06:52:27.280Z,77.17
2023-03-06T06:54:56.827Z,77.46
2023-03-06T06:57:26.203Z,77.77
2023-03-06T06:59:55.746Z,77.79
2023-03-06T07:02:27.884Z,77.39
2023-03-06T07:05:04.129Z,77.80
2023-03-06T07:07:34.453Z,77.27
2023-03-06T07:10:05.550Z,77.75
2023-03-06T07:12:35.345Z,77.34
2023-03-06T07:15:05.522Z,77.14
2023-03-06T07:17:37.552Z,77.42
2023-03-06T07:20:08.966Z,77.83
2023-03-06T07:22:50.381Z,78.02
2023-03-06T07:25:21.691Z,78.02
2023-03-06T07:27:54.434Z,77.89
2023-03-06T07:30:24.804Z,77.70
2023-03-06T07:33:00.942Z,77.76
2023-03-06T07:35:30.868Z,77.67
2023-03-06T07:38:00.398Z,77.87
2023-03-06T07:40:29.894Z,78.25
2023-03-06T07:43:16.883Z,78.32
2023-03-06T07:45:58.917Z,78.13
2023-03-06T07:48:30.959Z,78.48
2023-03-06T07:51:02.139Z,78.28
2023-03-06T07:53:32.060Z,78.50
2023-03-06T07:56:04.768Z,78.51
2023-03-06T07:58:33.954Z,79.30
2023-03-06T08:01:06.802Z,79.79
2023-03-06T08:03:39.018Z,80.32
2023-03-06T08:06:10.294Z,80.50
2023-03-06T08:08:41.999Z,81.05
2023-03-06T08:11:14.047Z,80.94
2023-03-06T08:13:44.095Z,80.72
2023-03-06T08:16:15.680Z,80.19
2023-03-06T08:18:49.362Z,80.83
2023-03-06T08:21:21.525Z,80.93
2023-03-06T08:23:51.102Z,81.51
2023-03-06T08:26:23.154Z,81.62
2023-03-06T08:28:53.946Z,80.45
2023-03-06T08:31:29.388Z,81.67
2023-03-06T08:34:03.687Z,82.09
2023-03-06T08:36:33.515Z,81.89
2023-03-06T08:39:03.101Z,81.94
2023-03-06T08:41:33.292Z,80.63
2023-03-06T08:44:02.849Z,80.36
2023-03-06T08:46:36.413Z,80.22
2023-03-06T08:49:08.432Z,80.65
2023-03-06T08:51:38.746Z,79.84
2023-03-06T08:54:08.547Z,80.08
2023-03-06T08:56:38.012Z,79.89
2023-03-06T08:59:09.388Z,79.66
2023-03-06T09:01:40.688Z,79.98
2023-03-06T09:04:14.049Z,80.97
2023-03-06T09:06:45.662Z,80.68
2023-03-06T09:09:15.750Z,80.97
2023-03-06T09:11:45.162Z,81.48
2023-03-06T09:14:15.840Z,81.11
2023-03-06T09:16:45.330Z,81.20
2023-03-06T09:19:17.372Z,81.53
2023-03-06T09:21:46.869Z,81.17
2023-03-06T09:24:16.568Z,81.77
2023-03-06T09:26:47.960Z,81.55
2023-03-06T09:29:18.971Z,81.22
2023-03-06T09:31:48.853Z,80.45
2023-03-06T09:34:21.187Z,81.02
2023-03-06T09:36:56.542Z,81.05
2023-03-06T09:39:27.681Z,81.30
2023-03-06T09:41:58.305Z,81.21
2023-03-06T09:44:30.375Z,80.74
2023-03-06T09:47:12.213Z,80.44
2023-03-06T09:50:11.283Z,80.41
2023-03-06T09:52:48.790Z,80.03
2023-03-06T09:55:21.620Z,79.81
2023-03-06T09:57:57.434Z,80.57
2023-03-06T10:00:33.436Z,80.06
2023-03-06T10:03:18.091Z,80.01
2023-03-06T10:05:52.999Z,80.77
2023-03-06T10:08:27.919Z,80.87
2023-03-06T10:11:03.717Z,80.72
2023-03-06T10:13:41.839Z,80.42
2023-03-06T10:16:23.158Z,80.38
2023-03-06T10:18:53.367Z,79.24
2023-03-06T10:21:45.015Z,77.92
2023-03-06T10:24:32.725Z,78.29
2023-03-06T10:27:13.184Z,79.01
2023-03-06T10:30:02.281Z,77.71
2023-03-06T10:32:48.241Z,76.67
2023-03-06T10:35:22.522Z,75.40
2023-03-06T10:38:02.869Z,76.42
2023-03-06T10:40:42.223Z,75.29
2023-03-06T10:43:13.757Z,74.14
2023-03-06T10:45:50.885Z,73.07
2023-03-06T10:48:23.604Z,72.31
2023-03-06T10:50:53.495Z,70.62
2023-03-06T10:53:29.069Z,69.12
2023-03-06T10:56:01.192Z,70.46
2023-03-06T10:58:32.561Z,71.23
2023-03-06T11:01:18.331Z,69.93
2023-03-06T11:03:48.121Z,69.91
2023-03-06T11:06:34.612Z,72.18
2023-03-06T11:09:25.104Z,72.24
2023-03-06T11:11:55.177Z,70.89
2023-03-06T11:14:27.580Z,71.22
2023-03-06T11:16:57.159Z,72.64
2023-03-06T11:19:28.895Z,71.68
2023-03-06T11:22:09.544Z,71.94
2023-03-06T11:24:47.009Z,72.79
2023-03-06T11:27:25.255Z,72.95
2023-03-06T11:29:57.627Z,71.42
2023-03-06T11:32:32.198Z,70.53
2023-03-06T11:35:05.649Z,70.79
2023-03-06T11:37:45.537Z,69.16
2023-03-06T11:40:34.383Z,67.03
2023-03-06T11:43:14.349Z,68.40
2023-03-06T11:45:48.359Z,67.37
2023-03-06T11:48:26.412Z,69.74
2023-03-06T11:50:59.989Z,67.38
2023-03-06T11:53:34.997Z,66.83
2023-03-06T11:56:22.870Z,65.18
2023-03-06T11:59:11.621Z,64.12
2023-03-06T12:01:46.631Z,63.10
2023-03-06T12:04:34.489Z,63.24
2023-03-06T12:07:13.363Z,60.65
2023-03-06T12:09:49.105Z,60.32
2023-03-06T12:12:35.547Z,60.73
2023-03-06T12:15:25.117Z,60.56
2023-03-06T12:18:30.466Z,60.56
2023-03-06T12:21:07.187Z,61.28
2023-03-06T12:23:55.115Z,61.37
2023-03-06T12:26:42.091Z,63.09
2023-03-06T12:29:30.995Z,63.79
2023-03-06T12:32:14.765Z,60.18
2023-03-06T12:35:05.753Z,57.95
2023-03-06T12:37:47.569Z,57.81
2023-03-06T12:40:34.935Z,55.11
2023-03-06T12:43:25.411Z,51.08
2023-03-06T12:46:01.555Z,55.10
2023-03-06T12:48:37.072Z,46.47
2023-03-06T12:51:10.208Z,46.19
2023-03-06T12:53:40.957Z,45.82
2023-03-06T12:56:12.088Z,40.48
2023-03-06T12:58:53.269Z,33.88
2023-03-06T13:01:41.953Z,31.15
2023-03-06T13:04:42.721Z,32.66
2023-03-06T13:07:30.421Z,37.23
2023-03-06T13:10:23.088Z,40.94
2023-03-06T13:12:57.098Z,36.91
2023-03-06T13:15:36.821Z,40.05
2023-03-06T13:18:46.166Z,45.89
2023-03-06T13:21:46.154Z,46.76
2023-03-06T13:24:22.343Z,38.79
2023-03-06T13:27:02.333Z,44.55
2023-03-06T13:30:17.113Z,45.92
2023-03-06T13:32:46.660Z,42.84
2023-03-06T13:35:49.173Z,36.46
2023-03-06T13:38:55.263Z,34.25
2023-03-06T13:41:39.817Z,31.09
2023-03-06T13:44:43.607Z,40.71
2023-03-06T13:47:32.899Z,43.63
2023-03-06T13:50:03.519Z,43.63
2023-03-06T13:52:43.884Z,44.39
2023-03-06T13:55:26.288Z,44.47
2023-03-06T13:58:15.143Z,48.01
2023-03-06T14:01:13.659Z,47.94
2023-03-06T14:04:20.532Z,49.19
2023-03-06T14:07:06.275Z,51.44
2023-03-06T14:09:38.468Z,51.18
2023-03-06T14:12:23.616Z,51.83
2023-03-06T14:14:57.865Z,48.94
2023-03-06T14:17:31.891Z,49.04
2023-03-06T14:20:06.924Z,50.07
2023-03-06T14:22:36.555Z,50.67
2023-03-06T14:25:16.470Z,48.81
2023-03-06T14:27:52.529Z,49.48
2023-03-06T14:30:26.031Z,50.39
2023-03-06T14:32:57.879Z,50.41
2023-03-06T14:35:30.847Z,51.56
2023-03-06T14:38:03.464Z,52.04
2023-03-06T14:40:36.981Z,51.82
2023-03-06T14:43:18.333Z,52.52
2023-03-06T14:45:53.336Z,52.42
2023-03-06T14:48:23.430Z,51.65
2023-03-06T14:50:54.918Z,51.26
2023-03-06T14:53:29.367Z,51.27
2023-03-06T14:56:01.388Z,51.54
2023-03-06T14:58:39.045Z,51.56
2023-03-06T15:01:11.219Z,50.52
2023-03-06T15:03:47.175Z,51.87
2023-03-06T15:06:22.424Z,51.58
2023-03-06T15:08:58.873Z,51.74
2023-03-06T15:11:28.567Z,52.06
2023-03-06T15:14:07.809Z,51.97
2023-03-06T15:16:37.391Z,51.42
2023-03-06T15:19:07.242Z,51.98
2023-03-06T15:21:39.284Z,51.96
2023-03-06T15:24:33.890Z,51.98
2023-03-06T15:27:05.419Z,52.10
2023-03-06T15:29:41.027Z,50.56
2023-03-06T15:32:30.928Z,49.99
2023-03-06T15:35:28.733Z,49.38
2023-03-06T15:37:59.126Z,49.42
2023-03-06T15:40:31.157Z,49.56
2023-03-06T15:43:01.301Z,49.88
2023-03-06T15:45:33.385Z,50.06
2023-03-06T15:48:03.071Z,50.22
2023-03-06T15:50:32.537Z,49.95
2023-03-06T15:53:02.053Z,50.43
2023-03-06T15:55:31.480Z,50.39
2023-03-06T15:58:03.411Z,50.44
2023-03-06T16:00:38.482Z,50.51
2023-03-06T16:03:08.064Z,51.21
2023-03-06T16:05:37.660Z,51.48
2023-03-06T16:08:07.575Z,52.03
2023-03-06T16:10:40.645Z,53.25
2023-03-06T16:13:15.096Z,53.40
2023-03-06T16:15:51.166Z,53.09
2023-03-06T16:18:21.314Z,52.59
2023-03-06T16:20:50.739Z,52.79
2023-03-06T16:23:20.115Z,53.16
2023-03-06T16:25:51.905Z,53.86
2023-03-06T16:28:21.310Z,53.61
2023-03-06T16:30:53.304Z,53.88
2023-03-06T16:33:23.676Z,53.80
2023-03-06T16:35:53.075Z,53.84
2023-03-06T16:38:22.440Z,53.76
2023-03-06T16:40:51.824Z,54.41
2023-03-06T16:43:21.208Z,55.16
2023-03-06T16:45:53.175Z,55.20
2023-03-06T16:48:22.624Z,55.52
2023-03-06T16:50:51.993Z,56.19
2023-03-06T16:53:21.493Z,55.73
2023-03-06T16:55:50.890Z,56.63
2023-03-06T16:58:20.442Z,56.41
2023-03-06T17:00:49.805Z,57.05
2023-03-06T17:03:22.002Z,57.84
2023-03-06T17:05:51.409Z,58.19
2023-03-06T17:08:20.810Z,58.62
2023-03-06T17:10:50.307Z,58.69
2023-03-06T17:13:19.749Z,59.27
2023-03-06T17:15:56.867Z,59.55
2023-03-06T17:18:30.813Z,59.88
2023-03-06T17:21:00.533Z,60.62
2023-03-06T17:23:31.467Z,61.10
2023-03-06T17:26:09.033Z,61.27
2023-03-06T17:28:39.836Z,61.92
2023-03-06T17:31:14.442Z,62.16
2023-03-06T17:33:46.772Z,62.41
2023-03-06T17:36:17.605Z,62.64
2023-03-06T17:38:47.250Z,63.42
2023-03-06T17:41:17.061Z,63.66
2023-03-06T17:43:46.417Z,63.45
2023-03-06T17:46:18.189Z,63.18
2023-03-06T17:48:50.337Z,63.76
2023-03-06T17:51:19.833Z,63.88
2023-03-06T17:53:49.299Z,64.13
2023-03-06T17:56:18.675Z,64.24
2023-03-06T17:58:48.195Z,64.44
2023-03-06T18:01:19.633Z,64.89
2023-03-06T18:03:53.331Z,64.81
2023-03-06T18:06:23.127Z,65.56
2023-03-06T18:08:53.081Z,65.96
2023-03-06T18:11:23.052Z,66.29
2023-03-06T18:13:52.765Z,66.90
2023-03-06T18:16:25.538Z,67.41
2023-03-06T18:18:58.106Z,67.51
2023-03-06T18:21:28.081Z,67.87
2023-03-06T18:23:57.437Z,67.97
2023-03-06T18:26:29.136Z,68.02
2023-03-06T18:29:01.341Z,68.70
2023-03-06T18:31:34.641Z,68.75
2023-03-06T18:34:09.195Z,69.38
2023-03-06T18:36:39.718Z,69.58
2023-03-06T18:39:11.897Z,70.24
2023-03-06T18:41:41.384Z,70.28
2023-03-06T18:44:11.084Z,70.04
2023-03-06T18:46:41.128Z,70.18
2023-03-06T18:49:13.659Z,70.53
2023-03-06T18:51:43.082Z,71.18
2023-03-06T18:54:14.046Z,71.23
2023-03-06T18:56:44.604Z,71.63
2023-03-06T18:59:18.909Z,71.32
2023-03-06T19:01:49.129Z,71.61
2023-03-06T19:04:21.279Z,71.72
2023-03-06T19:06:51.438Z,71.57
2023-03-06T19:09:20.890Z,72.16
2023-03-06T19:11:50.322Z,72.47
2023-03-06T19:14:21.331Z,72.55
2023-03-06T19:16:50.773Z,72.65
2023-03-06T19:19:26.202Z,72.16
2023-03-06T19:21:55.801Z,72.93
2023-03-06T19:24:25.197Z,73.04
2023-03-06T19:26:54.647Z,73.20
2023-03-06T19:29:24.119Z,73.21
2023-03-06T19:31:56.545Z,73.47
2023-03-06T19:34:28.610Z,73.10
2023-03-06T19:36:58.078Z,72.78
2023-03-06T19:39:27.490Z,72.68
2023-03-06T19:41:56.908Z,72.71
2023-03-06T19:44:26.858Z,72.68
2023-03-06T19:46:56.299Z,72.81
2023-03-06T19:49:28.292Z,73.31
2023-03-06T19:51:57.695Z,73.22
2023-03-06T19:54:27.189Z,73.31
2023-03-06T19:56:56.706Z,73.27
2023-03-06T19:59:26.114Z,73.14
2023-03-06T20:01:55.761Z,73.72
2023-03-06T20:04:28.068Z,73.71
2023-03-06T20:06:57.809Z,73.95
2023-03-06T20:09:27.494Z,73.89
2023-03-06T20:11:57.179Z,74.03
2023-03-06T20:14:26.922Z,74.26
2023-03-06T20:16:56.658Z,74.65
2023-03-06T20:19:28.970Z,75.08
2023-03-06T20:21:58.607Z,75.59
2023-03-06T20:24:28.285Z,75.30
2023-03-06T20:26:59.543Z,75.63
2023-03-06T20:29:29.445Z,75.98
2023-03-06T20:32:00.149Z,76.18
2023-03-06T20:34:32.390Z,75.83
2023-03-06T20:37:01.981Z,76.25
2023-03-06T20:39:31.638Z,76.04
2023-03-06T20:42:02.345Z,76.13
2023-03-06T20:44:32.221Z,76.56
2023-03-06T20:47:02.452Z,76.17
2023-03-06T20:49:34.604Z,75.97
2023-03-06T20:52:04.225Z,76.19
2023-03-06T20:54:33.829Z,75.88
2023-03-06T20:57:03.460Z,75.60
2023-03-06T20:59:33.040Z,75.58
2023-03-06T21:02:03.840Z,75.41
2023-03-06T21:04:38.673Z,75.51
2023-03-06T21:07:08.305Z,75.14
2023-03-06T21:09:39.679Z,75.24
2023-03-06T21:12:09.503Z,74.84
2023-03-06T21:14:39.083Z,74.40
2023-03-06T21:17:08.704Z,74.06
2023-03-06T21:19:41.563Z,74.01
2023-03-06T21:22:11.190Z,73.75
2023-03-06T21:24:40.810Z,73.46
2023-03-06T21:27:10.430Z,73.51
2023-03-06T21:29:40.069Z,73.50
2023-03-06T21:32:09.667Z,73.43
2023-03-06T21:34:42.023Z,73.73
2023-03-06T21:37:11.557Z,73.67
2023-03-06T21:39:41.312Z,73.49
2023-03-06T21:42:10.959Z,73.26
2023-03-06T21:44:40.642Z,73.42
2023-03-06T21:47:10.215Z,73.15
2023-03-06T21:49:42.606Z,73.38
2023-03-06T21:52:12.309Z,73.80
2023-03-06T21:54:42.061Z,73.77
2023-03-06T21:57:11.781Z,73.69
2023-03-06T21:59:41.595Z,74.11
2023-03-06T22:02:13.117Z,74.01
2023-03-06T22:04:46.342Z,74.37
2023-03-06T22:07:16.336Z,74.57
2023-03-06T22:09:46.213Z,74.57
2023-03-06T22:12:15.839Z,74.71
2023-03-06T22:14:46.677Z,75.11
2023-03-06T22:17:16.532Z,74.83
2023-03-06T22:19:51.081Z,74.68
2023-03-06T22:22:20.660Z,74.82
2023-03-06T22:24:51.190Z,74.94
2023-03-06T22:27:20.991Z,75.12
2023-03-06T22:29:50.569Z,74.88
2023-03-06T22:32:20.119Z,75.05
2023-03-06T22:34:52.932Z,74.72
2023-03-06T22:37:22.344Z,74.87
2023-03-06T22:39:51.839Z,74.52
2023-03-06T22:42:21.314Z,74.69
2023-03-06T22:44:50.847Z,74.74
2023-03-06T22:47:20.381Z,74.50
2023-03-06T22:49:52.355Z,74.84
2023-03-06T22:52:22.165Z,75.02
2023-03-06T22:54:51.539Z,74.98
2023-03-06T22:57:21.011Z,74.58
2023-03-06T22:59:50.429Z,74.44
2023-03-06T23:02:19.881Z,74.24
2023-03-06T23:04:54.817Z,73.76
2023-03-06T23:07:24.216Z,74.04
2023-03-06T23:10:03.204Z,74.03
2023-03-06T23:12:51.253Z,73.56
2023-03-06T23:15:39.571Z,73.67
2023-03-06T23:18:30.957Z,73.07
2023-03-06T23:21:23.370Z,73.13
2023-03-06T23:24:11.633Z,72.98
2023-03-06T23:26:41.090Z,72.67
2023-03-06T23:29:10.624Z,72.50
2023-03-06T23:31:40.030Z,72.01
2023-03-06T23:34:11.557Z,72.25
2023-03-06T23:36:43.575Z,72.24
2023-03-06T23:39:14.893Z,71.89
2023-03-06T23:41:44.815Z,72.09
2023-03-06T23:44:14.298Z,72.15
2023-03-06T23:46:43.957Z,72.48
2023-03-06T23:49:13.410Z,72.57
2023-03-06T23:51:45.605Z,72.53
2023-03-06T23:54:15.306Z,72.59
2023-03-06T23:56:44.691Z,72.30
2023-03-06T23:59:14.610Z,72.21
